Dades meteomassalio
Diari Summary for Febrer 9, 2017 Units:  Metric    English   Both
« Previous Day
Next Day »
Diari Semanal Mensual Anual Personalitzat
  Maxima: Minima: Mijana:
Temperatura: -17.8 °C -16.1 °C -14.1 °C
Rosada: -17.8 °C -18.5 °C -17.2 °C
Humitat: Humidity % 37 % 69 %
Velocitat del vent: 0 km/h 0 km/h 22.4 km/h
Racha vent: 0 km/h - -
Vent:- - WNW
Pressio: 0 hPa 34418.7 hPa -
Pluja: 0 mm    
Historical Graphs
 
 
Tabular Data for Febrer 9, 2017
Time Temperature Dew Point Pressure Wind Wind Speed Wind Gust Humidity Rainfall Rate (Hourly) solar Conditions
-17.8 °C -17.8 °C 0 hPa Calm     Humidity % 0 mm SolarRadiationWatts/m^2 W/m2 Conditions
00:03 -14.8 °C -16.8 °C 34693 hPa NW 65.5 km/h 65.5 km/h 78 % 0 mm 0.0 W/m2 CLR
00:08 -14.8 °C -16.8 °C 34693 hPa NW 56.6 km/h 56.6 km/h 78 % 0 mm 0.0 W/m2 CLR
00:13 -14.8 °C -16.8 °C 34693 hPa NW 68.6 km/h 68.6 km/h 78 % 0 mm 0.0 W/m2 CLR
00:18 -14.8 °C -16.8 °C 34693 hPa NW 62.6 km/h 62.6 km/h 78 % 0 mm 0.0 W/m2 CLR
00:23 -14.8 °C -16.8 °C 34703.1 hPa NW 50.7 km/h 50.7 km/h 78 % 0 mm 0.0 W/m2 CLR
00:28 -14.8 °C -16.8 °C 34693 hPa NW 68.6 km/h 68.6 km/h 78 % 0 mm 0.0 W/m2 CLR
00:33 -14.8 °C -16.8 °C 34703.1 hPa NW 41.7 km/h 41.7 km/h 78 % 0 mm 0.0 W/m2 CLR
00:38 -14.8 °C -16.8 °C 34703.1 hPa NW 49.2 km/h 49.2 km/h 78 % 0 mm 0.0 W/m2 CLR
00:43 -14.8 °C -16.8 °C 34703.1 hPa NW 68.6 km/h 68.6 km/h 78 % 0 mm 0.0 W/m2 CLR
00:48 -14.8 °C -16.7 °C 34703.1 hPa NW 65.5 km/h 65.5 km/h 78 % 0 mm 0.0 W/m2 CLR
00:53 -14.8 °C -16.8 °C 34703.1 hPa NW 59.5 km/h 59.5 km/h 78 % 0 mm 0.0 W/m2 CLR
00:58 -14.8 °C -16.8 °C 34703.1 hPa NW 50.7 km/h 50.7 km/h 77 % 0 mm 0.0 W/m2 CLR
01:03 -14.8 °C -16.8 °C 34703.1 hPa NW 50.7 km/h 50.7 km/h 78 % 0 mm 0.0 W/m2 CLR
01:08 -14.8 °C -16.8 °C 34693 hPa NW 44.7 km/h 44.7 km/h 78 % 0 mm 0.0 W/m2 CLR
01:13 -14.8 °C -16.8 °C 34693 hPa NW 51.8 km/h 51.8 km/h 78 % 0 mm 0.0 W/m2 CLR
01:18 -14.8 °C -16.8 °C 34693 hPa NW 47.6 km/h 47.6 km/h 78 % 0 mm 0.0 W/m2 CLR
01:23 -14.9 °C -16.7 °C 34693 hPa NW 47.6 km/h 47.6 km/h 79 % 0 mm 0.0 W/m2 CLR
01:28 -14.8 °C -16.7 °C 34693 hPa NW 50.7 km/h 50.7 km/h 79 % 0 mm 0.0 W/m2 CLR
01:33 -14.9 °C -16.7 °C 34693 hPa NW 56.6 km/h 56.6 km/h 79 % 0 mm 0.0 W/m2 CLR
01:38 -14.9 °C -16.8 °C 34693 hPa NW 44.7 km/h 44.7 km/h 79 % 0 mm 0.0 W/m2 CLR
01:43 -14.9 °C -16.8 °C 34693 hPa NW 38.8 km/h 38.8 km/h 79 % 0 mm 0.0 W/m2 CLR
01:48 -14.9 °C -16.8 °C 34693 hPa NW 62.6 km/h 62.6 km/h 79 % 0 mm 0.0 W/m2 CLR
01:53 -14.9 °C -16.8 °C 34693 hPa NW 50.7 km/h 50.7 km/h 79 % 0 mm 0.0 W/m2 CLR
01:58 -14.9 °C -16.9 °C 34682.8 hPa NW 51.8 km/h 51.8 km/h 78 % 0 mm 0.0 W/m2 CLR
02:03 -14.9 °C -16.8 °C 34682.8 hPa NW 56.6 km/h 56.6 km/h 78 % 0 mm 0.0 W/m2 CLR
02:08 -14.9 °C -16.8 °C 34682.8 hPa NW 68.6 km/h 68.6 km/h 78 % 0 mm 0.0 W/m2 CLR
02:13 -14.9 °C -16.9 °C 34682.8 hPa NW 68.6 km/h 68.6 km/h 78 % 0 mm 0.0 W/m2 CLR
02:18 -14.9 °C -16.9 °C 34682.8 hPa NW 54.4 km/h 54.4 km/h 78 % 0 mm 0.0 W/m2 CLR
02:23 -14.9 °C -16.9 °C 34682.8 hPa NW 62.1 km/h 62.1 km/h 78 % 0 mm 0.0 W/m2 CLR
02:28 -14.9 °C -16.9 °C 34682.8 hPa NW 71.5 km/h 71.5 km/h 78 % 0 mm 0.0 W/m2 CLR
02:33 -14.9 °C -16.8 °C 34682.8 hPa NW 54.4 km/h 54.4 km/h 78 % 0 mm 0.0 W/m2 CLR
02:38 -14.9 °C -16.8 °C 34682.8 hPa NW 68.6 km/h 68.6 km/h 78 % 0 mm 0.0 W/m2 CLR
02:43 -14.9 °C -16.9 °C 34682.8 hPa NW 65.5 km/h 65.5 km/h 78 % 0 mm 0.0 W/m2 CLR
02:48 -14.9 °C -16.9 °C 34682.8 hPa NW 69.8 km/h 69.8 km/h 78 % 0 mm 0.0 W/m2 CLR
02:53 -14.9 °C -16.9 °C 34682.8 hPa NW 59.5 km/h 59.5 km/h 78 % 0 mm 0.0 W/m2 CLR
02:58 -15 °C -16.9 °C 34669.3 hPa NW 53.6 km/h 53.6 km/h 78 % 0 mm 0.0 W/m2 CLR
03:03 -15 °C -16.8 °C 34669.3 hPa NW 59.5 km/h 59.5 km/h 79 % 0 mm 0.0 W/m2 CLR
03:08 -15.1 °C -16.9 °C 34669.3 hPa NW 68.6 km/h 68.6 km/h 79 % 0 mm 0.0 W/m2 CLR
03:13 -15.1 °C -16.9 °C 34669.3 hPa NW 62.6 km/h 62.6 km/h 79 % 0 mm 0.0 W/m2 CLR
03:18 -15.1 °C -16.9 °C 34669.3 hPa NW 56.6 km/h 56.6 km/h 79 % 0 mm 0.0 W/m2 CLR
03:23 -15.1 °C -16.8 °C 34669.3 hPa NW 53.6 km/h 53.6 km/h 80 % 0 mm 0.0 W/m2 CLR
03:28 -15.2 °C -16.9 °C 34669.3 hPa NW 53.6 km/h 53.6 km/h 80 % 0 mm 0.0 W/m2 CLR
03:33 -15.2 °C -16.9 °C 34669.3 hPa NW 35.7 km/h 35.7 km/h 80 % 0 mm 0.0 W/m2 CLR
03:38 -15.2 °C -17 °C 34659.1 hPa WNW 50.7 km/h 50.7 km/h 80 % 0 mm 0.0 W/m2 CLR
03:43 -15.3 °C -17.1 °C 34659.1 hPa WNW 29.8 km/h 29.8 km/h 80 % 0 mm 0.0 W/m2 CLR
03:48 -15.3 °C -17.1 °C 34659.1 hPa WNW 35.7 km/h 35.7 km/h 80 % 0 mm 0.0 W/m2 CLR
03:53 -15.3 °C -17.1 °C 34659.1 hPa WNW 59.5 km/h 59.5 km/h 80 % 0 mm 0.0 W/m2 CLR
03:58 -15.3 °C -17.1 °C 34645.6 hPa WNW 44.7 km/h 44.7 km/h 80 % 0 mm 0.0 W/m2 CLR
04:03 -15.4 °C -17.1 °C 34645.6 hPa WNW 32.8 km/h 36.7 km/h 80 % 0 mm 0.0 W/m2 CLR
04:08 -15.4 °C -17.1 °C 34645.6 hPa NW 38.8 km/h 38.8 km/h 80 % 0 mm 0.0 W/m2 CLR
04:14 -15.4 °C -17.1 °C 34645.6 hPa NW 44.7 km/h 44.7 km/h 80 % 0 mm 0.0 W/m2 CLR
04:19 -15.3 °C -17.1 °C 34645.6 hPa NW 47.6 km/h 47.6 km/h 80 % 0 mm 0.0 W/m2 CLR
04:24 -15.3 °C -17.2 °C 34645.6 hPa WNW 47.6 km/h 47.6 km/h 79 % 0 mm 0.0 W/m2 CLR
04:29 -15.3 °C -17.1 °C 34645.6 hPa WNW 50.7 km/h 50.7 km/h 79 % 0 mm 0.0 W/m2 CLR
04:34 -15.3 °C -17.2 °C 34645.6 hPa WNW 46.7 km/h 46.7 km/h 79 % 0 mm 0.0 W/m2 CLR
04:39 -15.4 °C -17.1 °C 34645.6 hPa WNW 50.7 km/h 50.7 km/h 80 % 0 mm 0.0 W/m2 CLR
04:44 -15.4 °C -17.2 °C 34645.6 hPa WNW 49.2 km/h 49.2 km/h 80 % 0 mm 0.0 W/m2 CLR
04:49 -15.4 °C -17.2 °C 34645.6 hPa WNW 41.7 km/h 41.7 km/h 80 % 0 mm 0.0 W/m2 CLR
04:54 -15.5 °C -17.1 °C 34645.6 hPa WNW 41.7 km/h 41.7 km/h 81 % 0 mm 0.0 W/m2 CLR
04:59 -15.6 °C -17.2 °C 34645.6 hPa WNW 23.8 km/h 23.8 km/h 81 % 0 mm 0.0 W/m2 CLR
05:04 -15.6 °C -17.2 °C 34645.6 hPa WNW 28.5 km/h 28.5 km/h 81 % 0 mm 0.0 W/m2 CLR
05:09 -15.6 °C -17.1 °C 34645.6 hPa WNW 29.8 km/h 29.8 km/h 82 % 0 mm 0.0 W/m2 CLR
05:14 -15.6 °C -17.2 °C 34645.6 hPa West 29.8 km/h 29.8 km/h 81 % 0 mm 0.0 W/m2 CLR
05:19 -15.5 °C -17.1 °C 34645.6 hPa WNW 32.8 km/h 32.8 km/h 81 % 0 mm 0.0 W/m2 CLR
05:24 -15.5 °C -17.1 °C 34659.1 hPa West 29.8 km/h 29.8 km/h 81 % 0 mm 0.0 W/m2 CLR
05:29 -15.5 °C -17.1 °C 34645.6 hPa West 32.8 km/h 32.8 km/h 82 % 0 mm 0.0 W/m2 CLR
05:34 -15.5 °C -17.1 °C 34645.6 hPa West 32.8 km/h 32.8 km/h 82 % 0 mm 0.0 W/m2 CLR
05:39 -15.4 °C -17 °C 34645.6 hPa West 41.7 km/h 41.7 km/h 82 % 0 mm 0.0 W/m2 CLR
05:44 -15.5 °C -17.1 °C 34645.6 hPa WNW 41.7 km/h 41.7 km/h 82 % 0 mm 0.0 W/m2 CLR
05:49 -15.5 °C -17.1 °C 34645.6 hPa WNW 32.8 km/h 32.8 km/h 82 % 0 mm 0.0 W/m2 CLR
05:54 -15.5 °C -17.1 °C 34645.6 hPa WNW 29.8 km/h 29.8 km/h 82 % 0 mm 0.0 W/m2 CLR
05:59 -15.6 °C -17.1 °C 34645.6 hPa WNW 38.8 km/h 38.8 km/h 82 % 0 mm 0.0 W/m2 CLR
06:04 -15.6 °C -17.1 °C 34645.6 hPa WNW 38.8 km/h 38.8 km/h 82 % 0 mm 0.0 W/m2 CLR
06:09 -15.6 °C -17.1 °C 34645.6 hPa WNW 32.8 km/h 32.8 km/h 82 % 0 mm 0.0 W/m2 CLR
06:14 -15.6 °C -17.1 °C 34659.1 hPa WNW 36.2 km/h 36.2 km/h 82 % 0 mm 0.0 W/m2 CLR
06:19 -15.5 °C -17.1 °C 34645.6 hPa WNW 29.8 km/h 29.8 km/h 82 % 0 mm 0.0 W/m2 CLR
06:24 -15.5 °C -17.1 °C 34645.6 hPa WNW 35.7 km/h 35.7 km/h 82 % 0 mm 0.0 W/m2 CLR
06:29 -15.5 °C -17.1 °C 34645.6 hPa WNW 41.7 km/h 41.7 km/h 82 % 0 mm 0.0 W/m2 CLR
06:34 -15.4 °C -17.1 °C 34645.6 hPa WNW 29.8 km/h 29.8 km/h 81 % 0 mm 0.0 W/m2 CLR
06:39 -15.4 °C -17.1 °C 34659.1 hPa WNW 47.6 km/h 47.6 km/h 81 % 0 mm 0.0 W/m2 CLR
06:44 -15.4 °C -17.1 °C 34659.1 hPa WNW 32.8 km/h 32.8 km/h 81 % 0 mm 0.0 W/m2 CLR
06:49 -15.4 °C -17.1 °C 34659.1 hPa WNW 26.9 km/h 26.9 km/h 81 % 0 mm 0.0 W/m2 CLR
06:54 -15.4 °C -17.1 °C 34659.1 hPa WNW 29.8 km/h 29.8 km/h 81 % 0 mm 0.0 W/m2 CLR
06:59 -15.4 °C -17.1 °C 34659.1 hPa WNW 20.9 km/h 20.9 km/h 81 % 0 mm 0.0 W/m2 CLR
07:04 -15.4 °C -17.1 °C 34659.1 hPa WNW 18.2 km/h 18.2 km/h 81 % 0 mm 0.0 W/m2 CLR
07:09 -15.4 °C -17.1 °C 34659.1 hPa Calm     81 % 0 mm 0.0 W/m2 CLR
07:14 -15.5 °C -17.2 °C 34659.1 hPa WNW 15.6 km/h 15.6 km/h 81 % 0 mm 0.0 W/m2 CLR
07:19 -15.6 °C -17.2 °C 34659.1 hPa WNW 17.9 km/h 17.9 km/h 81 % 0 mm 0.0 W/m2 CLR
07:24 -15.6 °C -17.2 °C 34659.1 hPa WNW 17.9 km/h 17.9 km/h 81 % 0 mm 0.0 W/m2 CLR
07:29 -15.6 °C -17.2 °C 34659.1 hPa WNW 23.3 km/h 23.3 km/h 82 % 0 mm 0.0 W/m2 CLR
07:34 -15.6 °C -17.1 °C 34645.6 hPa WNW 26.9 km/h 26.9 km/h 82 % 0 mm 0.0 W/m2 CLR
07:39 -15.5 °C -17.2 °C 34645.6 hPa WNW 29.8 km/h 29.8 km/h 81 % 0 mm 0.0 W/m2 CLR
07:44 -15.5 °C -17.1 °C 34645.6 hPa West 29.8 km/h 29.8 km/h 81 % 0 mm 0.0 W/m2 CLR
07:49 -15.5 °C -17.1 °C 34659.1 hPa West 29.8 km/h 29.8 km/h 81 % 0 mm 0.0 W/m2 CLR
07:54 -15.4 °C -17.1 °C 34645.6 hPa West 29.8 km/h 29.8 km/h 81 % 0 mm 0.0 W/m2 CLR
07:59 -15.4 °C -17.2 °C 34659.1 hPa West 26.9 km/h 26.9 km/h 80 % 0 mm 0.0 W/m2 CLR
08:04 -15.4 °C -17.1 °C 34659.1 hPa West 26.9 km/h 26.9 km/h 81 % 0 mm 7.0 W/m2 OVC
08:09 -15.5 °C -17.1 °C 34645.6 hPa West 25.9 km/h 25.9 km/h 81 % 0 mm 9.0 W/m2 BKN
08:14 -15.5 °C -17.1 °C 34659.1 hPa West 23.8 km/h 23.8 km/h 81 % 0 mm 11.0 W/m2 BKN
08:19 -15.4 °C -17.1 °C 34659.1 hPa West 26.9 km/h 26.9 km/h 81 % 0 mm 12.0 W/m2 BKN
08:24 -15.5 °C -17.3 °C 34659.1 hPa WSW 7.7 km/h 7.7 km/h 80 % 0 mm 16.0 W/m2 BKN
08:29 -15.7 °C -17.3 °C 34659.1 hPa WSW 3.1 km/h 3.1 km/h 81 % 0 mm 18.0 W/m2 BKN
08:34 -15.7 °C -17.3 °C 34659.1 hPa SW 6 km/h 6 km/h 82 % 0 mm 21.0 W/m2 BKN
08:39 -15.7 °C -17.3 °C 34645.6 hPa SW 9 km/h   82 % 0 mm 30.0 W/m2 BKN
08:44 -15.7 °C -17.1 °C 34645.6 hPa SW 3.1 km/h   83 % 0 mm 42.0 W/m2 BKN
08:49 -15.4 °C -17 °C 34645.6 hPa WSW 26.9 km/h 26.9 km/h 82 % 0 mm 54.0 W/m2 SCT
08:54 -15.2 °C -16.9 °C 34645.6 hPa West 23.8 km/h 23.8 km/h 81 % 0 mm 70.0 W/m2 FEW
08:59 -15.1 °C -16.8 °C 34645.6 hPa West 26.9 km/h 26.9 km/h 80 % 0 mm 84.0 W/m2 FEW
09:04 -14.9 °C -16.8 °C 34645.6 hPa West 20.8 km/h 20.8 km/h 79 % 0 mm 98.0 W/m2 FEW
09:09 -14.8 °C -16.8 °C 34645.6 hPa WNW 23.8 km/h 23.8 km/h 78 % 0 mm 116.0 W/m2 CLR
09:14 -14.8 °C -16.8 °C 34645.6 hPa WNW 23.3 km/h 23.3 km/h 78 % 0 mm 123.0 W/m2 CLR
09:19 -14.8 °C -16.7 °C 34645.6 hPa WNW 7.7 km/h 7.7 km/h 78 % 0 mm 148.0 W/m2 CLR
09:24 -14.6 °C -16.7 °C 34645.6 hPa WNW 3.1 km/h 3.1 km/h 77 % 0 mm 165.0 W/m2 CLR
09:30 -14.5 °C -16.7 °C 34645.6 hPa WSW 9 km/h   76 % 0 mm 84.0 W/m2 CLR
09:35 -14.4 °C -16.6 °C 34635.4 hPa Calm     76 % 0 mm 206.0 W/m2 CLR
09:40 -14.3 °C -16.6 °C 34635.4 hPa Calm     75 % 0 mm 221.0 W/m2 CLR
09:45 -14.3 °C -16.6 °C 34635.4 hPa SW 9 km/h 10.3 km/h 74 % 0 mm 237.0 W/m2 CLR
09:50 -14.2 °C -16.6 °C 34635.4 hPa WSW 20.9 km/h 20.9 km/h 74 % 0 mm 264.0 W/m2 CLR
09:55 -14.2 °C -16.6 °C 34635.4 hPa West 35.7 km/h 35.7 km/h 74 % 0 mm 271.0 W/m2 CLR
10:00 -14.3 °C -16.8 °C 34635.4 hPa West 41.7 km/h 41.7 km/h 73 % 0 mm 292.0 W/m2 CLR
10:05 -14.2 °C -16.7 °C 34635.4 hPa West 20.9 km/h 20.9 km/h 73 % 0 mm 299.0 W/m2 CLR
10:10 -14.1 °C -16.7 °C 34635.4 hPa West 20.9 km/h 20.9 km/h 72 % 0 mm 309.0 W/m2 CLR
10:15 -14 °C -16.6 °C 34625.2 hPa West 23.8 km/h 23.8 km/h 72 % 0 mm 325.0 W/m2 CLR
10:20 -13.9 °C -16.7 °C 34625.2 hPa West 29.8 km/h 29.8 km/h 71 % 0 mm 338.0 W/m2 CLR
10:25 -13.9 °C -16.8 °C 34625.2 hPa West 35.7 km/h 35.7 km/h 70 % 0 mm 348.0 W/m2 CLR
10:30 -13.9 °C -16.6 °C 34611.7 hPa West 29.8 km/h 29.8 km/h 71 % 0 mm 360.0 W/m2 CLR
10:35 -13.8 °C -16.6 °C 34611.7 hPa WNW 23.8 km/h 23.8 km/h 71 % 0 mm 374.0 W/m2 CLR
10:40 -13.8 °C -16.7 °C 34611.7 hPa WNW 47.6 km/h 47.6 km/h 70 % 0 mm 387.0 W/m2 CLR
10:45 -13.8 °C -16.7 °C 34611.7 hPa WNW 26.9 km/h 26.9 km/h 70 % 0 mm 396.0 W/m2 CLR
10:50 -13.7 °C -16.7 °C 34611.7 hPa WNW 23.8 km/h 23.8 km/h 69 % 0 mm 406.0 W/m2 CLR
10:55 -13.7 °C -16.6 °C 34611.7 hPa WNW 29.8 km/h 29.8 km/h 70 % 0 mm 420.0 W/m2 CLR
11:00 -13.7 °C -16.5 °C 34611.7 hPa WNW 26.9 km/h 26.9 km/h 70 % 0 mm 431.0 W/m2 CLR
11:05 -13.6 °C -16.4 °C 34611.7 hPa WNW 18.2 km/h 18.2 km/h 70 % 0 mm 441.0 W/m2 CLR
11:10 -13.4 °C -16.6 °C 34601.5 hPa West 32.8 km/h 32.8 km/h 68 % 0 mm 450.0 W/m2 CLR
11:15 -13.4 °C -16.6 °C 34601.5 hPa WNW 47.6 km/h 47.6 km/h 67 % 0 mm 462.0 W/m2 CLR
11:20 -13.4 °C -16.5 °C 34601.5 hPa WNW 32.8 km/h 32.8 km/h 68 % 0 mm 469.0 W/m2 CLR
11:25 -13.4 °C -16.6 °C 34601.5 hPa WNW 41.7 km/h 41.7 km/h 67 % 0 mm 478.0 W/m2 CLR
11:30 -13.3 °C -16.6 °C 34601.5 hPa WNW 32.8 km/h 32.8 km/h 67 % 0 mm 487.0 W/m2 CLR
11:35 -13.3 °C -16.8 °C 34601.5 hPa WNW 32.8 km/h 32.8 km/h 64 % 0 mm 496.0 W/m2 CLR
11:40 -13.3 °C -16.6 °C 34601.5 hPa West 44.7 km/h 44.7 km/h 66 % 0 mm 504.0 W/m2 CLR
11:45 -13.2 °C -16.7 °C 34601.5 hPa WNW 35.7 km/h 35.7 km/h 65 % 0 mm 510.0 W/m2 CLR
11:50 -13.2 °C -16.7 °C 34601.5 hPa NW 36.2 km/h 36.2 km/h 64 % 0 mm 519.0 W/m2 CLR
11:55 -13 °C -16.5 °C 34591.4 hPa WNW 29.8 km/h 29.8 km/h 65 % 0 mm 524.0 W/m2 CLR
12:00 -13 °C -16.3 °C 34591.4 hPa WNW 29.8 km/h 29.8 km/h 66 % 0 mm 531.0 W/m2 CLR
12:05 -12.9 °C -16.8 °C 34591.4 hPa WNW 32.8 km/h 32.8 km/h 62 % 0 mm 540.0 W/m2 CLR
12:10 -12.9 °C -16.9 °C 34591.4 hPa WNW 29.8 km/h 29.8 km/h 61 % 0 mm 543.0 W/m2 CLR
12:15 -12.8 °C -16.8 °C 34591.4 hPa WNW 38.8 km/h 38.8 km/h 61 % 0 mm 547.0 W/m2 CLR
12:20 -12.8 °C -16.7 °C 34591.4 hPa WNW 32.8 km/h 32.8 km/h 61 % 0 mm 554.0 W/m2 CLR
12:25 -12.7 °C -16.7 °C 34577.8 hPa NW 23.8 km/h 23.8 km/h 61 % 0 mm 557.0 W/m2 CLR
12:30 -12.6 °C -16.8 °C 34577.8 hPa WNW 36.2 km/h 36.2 km/h 59 % 0 mm 561.0 W/m2 CLR
12:35 -12.6 °C -16.6 °C 34567.7 hPa WNW 28.5 km/h 28.5 km/h 61 % 0 mm 563.0 W/m2 CLR
12:40 -12.6 °C -16.8 °C 34567.7 hPa WNW 26.9 km/h 26.9 km/h 59 % 0 mm 570.0 W/m2 CLR
12:45 -12.4 °C -16.7 °C 34567.7 hPa WNW 29.8 km/h 29.8 km/h 59 % 0 mm 571.0 W/m2 CLR
12:50 -12.4 °C -16.8 °C 34554.1 hPa NW 35.7 km/h 35.7 km/h 58 % 0 mm 575.0 W/m2 CLR
12:55 -12.4 °C -16.8 °C 34554.1 hPa WNW 23.8 km/h 23.8 km/h 58 % 0 mm 577.0 W/m2 CLR
13:00 -12.3 °C -17 °C 34554.1 hPa WNW 32.8 km/h 32.8 km/h 56 % 0 mm 578.0 W/m2 CLR
13:05 -12.3 °C -17 °C 34554.1 hPa WNW 26.9 km/h 26.9 km/h 56 % 0 mm 577.0 W/m2 CLR
13:10 -12.3 °C -17.1 °C 34554.1 hPa WNW 29.8 km/h 29.8 km/h 55 % 0 mm 580.0 W/m2 CLR
13:15 -12.2 °C -17 °C 34554.1 hPa WNW 35.7 km/h 35.7 km/h 55 % 0 mm 582.0 W/m2 CLR
13:20 -12.2 °C -17.3 °C 34544 hPa WNW 20.9 km/h 20.9 km/h 53 % 0 mm 580.0 W/m2 CLR
13:25 -12.1 °C -17.4 °C 34544 hPa WNW 26.9 km/h 26.9 km/h 52 % 0 mm 580.0 W/m2 CLR
13:30 -12.1 °C -17.2 °C 34544 hPa WNW 28.5 km/h 28.5 km/h 53 % 0 mm 580.0 W/m2 CLR
13:35 -12 °C -17.1 °C 34544 hPa WNW 17.9 km/h 17.9 km/h 53 % 0 mm 578.0 W/m2 CLR
13:40 -12 °C -17.2 °C 34533.8 hPa WNW 20.9 km/h 20.9 km/h 52 % 0 mm 578.0 W/m2 CLR
13:45 -11.8 °C -17.2 °C 34533.8 hPa NW 6 km/h 6 km/h 51 % 0 mm 578.0 W/m2 CLR
13:50 -11.7 °C -17.2 °C 34533.8 hPa WNW 25.9 km/h 25.9 km/h 51 % 0 mm 577.0 W/m2 CLR
13:55 -11.8 °C -17.3 °C 34520.3 hPa WNW 38.8 km/h 38.8 km/h 50 % 0 mm 573.0 W/m2 CLR
14:00 -11.7 °C -17.2 °C 34520.3 hPa WNW 31.1 km/h 31.1 km/h 51 % 0 mm 568.0 W/m2 CLR
14:05 -11.7 °C -17.1 °C 34520.3 hPa WNW 26.9 km/h 26.9 km/h 51 % 0 mm 566.0 W/m2 CLR
14:10 -11.6 °C -17.4 °C 34510.1 hPa NW 29.8 km/h 29.8 km/h 49 % 0 mm 561.0 W/m2 CLR
14:15 -11.6 °C -17.1 °C 34510.1 hPa NW 29.8 km/h 29.8 km/h 51 % 0 mm 557.0 W/m2 CLR
14:20 -11.6 °C -17.3 °C 34510.1 hPa NW 29.8 km/h 29.8 km/h 49 % 0 mm 552.0 W/m2 CLR
14:25 -11.6 °C -17.4 °C 34496.6 hPa NW 26.9 km/h 26.9 km/h 48 % 0 mm 548.0 W/m2 CLR
14:30 -11.4 °C -17.3 °C 34496.6 hPa WNW 23.8 km/h 23.8 km/h 48 % 0 mm 543.0 W/m2 CLR
14:35 -11.3 °C -17.4 °C 34496.6 hPa WNW 23.8 km/h 23.8 km/h 47 % 0 mm 534.0 W/m2 CLR
14:40 -11.3 °C -17.3 °C 34496.6 hPa NW 3.1 km/h 3.1 km/h 48 % 0 mm 531.0 W/m2 CLR
14:45 -11.3 °C -17.7 °C 34496.6 hPa NNW 26.9 km/h 26.9 km/h 45 % 0 mm 519.0 W/m2 CLR
14:50 -11.3 °C -17.4 °C 34486.4 hPa NNW 15 km/h 15 km/h 47 % 0 mm 512.0 W/m2 CLR
14:55 -11.3 °C -17.7 °C 34486.4 hPa NNW 23.3 km/h 23.3 km/h 45 % 0 mm 504.0 W/m2 CLR
15:00 -11.2 °C -17.5 °C 34486.4 hPa NW 12.9 km/h 12.9 km/h 46 % 0 mm 496.0 W/m2 CLR
15:05 -11.2 °C -17.6 °C 34476.3 hPa NW 23.3 km/h 23.3 km/h 45 % 0 mm 489.0 W/m2 CLR
15:11 -11.1 °C -17.9 °C 34476.3 hPa NNW 3.1 km/h   43 % 0 mm 480.0 W/m2 CLR
15:16 -11.1 °C -17.8 °C 34476.3 hPa NNW 20.9 km/h 20.9 km/h 43 % 0 mm 468.0 W/m2 CLR
15:20 -11.1 °C -17.9 °C 34476.3 hPa NW 9 km/h 9 km/h 43 % 0 mm 459.0 W/m2 CLR
15:24 -11.1 °C -17.8 °C 34476.3 hPa NNW 15.6 km/h 15.6 km/h 43 % 0 mm 452.0 W/m2 CLR
15:29 -10.9 °C -17.9 °C 34462.7 hPa NNW 20.9 km/h 20.9 km/h 42 % 0 mm 443.0 W/m2 CLR
15:34 -11 °C -17.9 °C 34462.7 hPa Calm     42 % 0 mm 432.0 W/m2 CLR
15:39 -10.9 °C -18.1 °C 34462.7 hPa Calm     41 % 0 mm 420.0 W/m2 CLR
15:44 -10.9 °C -18.2 °C 34462.7 hPa Calm     40 % 0 mm 413.0 W/m2 CLR
15:49 -10.7 °C -17.7 °C 34462.7 hPa Calm     42 % 0 mm 399.0 W/m2 CLR
15:54 -10.7 °C -17.9 °C 34462.7 hPa NNW 3.1 km/h 3.1 km/h 41 % 0 mm 381.0 W/m2 CLR
15:59 -10.8 °C -18 °C 34452.6 hPa Calm     41 % 0 mm 327.0 W/m2 CLR
16:04 -10.8 °C -18.2 °C 34452.6 hPa Calm     40 % 0 mm 359.0 W/m2 CLR
16:09 -10.7 °C -18 °C 34452.6 hPa Calm     40 % 0 mm 348.0 W/m2 CLR
16:14 -10.7 °C -17.8 °C 34452.6 hPa Calm     41 % 0 mm 336.0 W/m2 CLR
16:19 -10.6 °C -18.2 °C 34452.6 hPa Calm     39 % 0 mm 322.0 W/m2 CLR
16:24 -10.5 °C -17.9 °C 34452.6 hPa Calm     40 % 0 mm 315.0 W/m2 CLR
16:29 -10.5 °C -18.5 °C 34452.6 hPa Calm     37 % 0 mm 299.0 W/m2 CLR
16:32 -10.5 °C -18.3 °C 34452.6 hPa Calm     38 % 0 mm 278.0 W/m2 CLR
16:37 -10.6 °C -17.9 °C 34442.4 hPa Calm     40 % 0 mm 281.0 W/m2 CLR
16:42 -10.6 °C -18.2 °C 34442.4 hPa Calm     39 % 0 mm 269.0 W/m2 CLR
16:47 -10.5 °C -18.1 °C 34442.4 hPa Calm     39 % 0 mm 251.0 W/m2 CLR
16:52 -10.5 °C -17.9 °C 34442.4 hPa Calm     40 % 0 mm 237.0 W/m2 CLR
16:57 -10.6 °C -17.9 °C 34442.4 hPa Calm     40 % 0 mm 207.0 W/m2 CLR
17:02 -10.6 °C -18 °C 34442.4 hPa Calm     40 % 0 mm 197.0 W/m2 CLR
17:07 -10.7 °C -18.1 °C 34442.4 hPa Calm     40 % 0 mm 127.0 W/m2 CLR
17:12 -10.8 °C -18.2 °C 34442.4 hPa Calm     40 % 0 mm 81.0 W/m2 CLR
17:17 -10.9 °C -18.3 °C 34428.8 hPa Calm     40 % 0 mm 100.0 W/m2 CLR
17:22 -11 °C -18.2 °C 34428.8 hPa Calm     41 % 0 mm 70.0 W/m2 CLR
17:27 -11.1 °C -18.1 °C 34428.8 hPa Calm     42 % 0 mm 40.0 W/m2 BKN
17:32 -11.2 °C -18.2 °C 34428.8 hPa Calm     42 % 0 mm 39.0 W/m2 BKN
17:37 -11.3 °C -18.1 °C 34428.8 hPa Calm     43 % 0 mm 40.0 W/m2 BKN
17:42 -11.5 °C -17.9 °C 34442.4 hPa Calm     45 % 0 mm 44.0 W/m2 BKN
17:47 -11.6 °C -17.9 °C 34442.4 hPa Calm     45 % 0 mm 54.0 W/m2 SCT
17:52 -11.6 °C -17.9 °C 34428.8 hPa Calm     46 % 0 mm 35.0 W/m2 BKN
17:57 -11.7 °C -17.9 °C 34442.4 hPa Calm     46 % 0 mm 25.0 W/m2 BKN
18:02 -11.8 °C -17.8 °C 34442.4 hPa Calm     47 % 0 mm 21.0 W/m2 BKN
18:07 -11.9 °C -17.9 °C 34428.8 hPa Calm     47 % 0 mm 16.0 W/m2 BKN
18:12 -12 °C -17.9 °C 34442.4 hPa Calm     48 % 0 mm 12.0 W/m2 BKN
18:17 -12.1 °C -17.7 °C 34442.4 hPa Calm     50 % 0 mm 7.0 W/m2 BKN
18:22 -12.2 °C -17.7 °C 34442.4 hPa Calm     50 % 0 mm 5.0 W/m2 OVC
18:27 -12.3 °C -17.8 °C 34442.4 hPa Calm     50 % 0 mm 0.0 W/m2 OVC
18:32 -12.4 °C -17.7 °C 34442.4 hPa Calm     52 % 0 mm 0.0 W/m2 OVC
18:37 -12.6 °C -18 °C 34442.4 hPa Calm     50 % 0 mm 0.0 W/m2 CLR
18:42 -12.6 °C -18.1 °C 34442.4 hPa Calm     50 % 0 mm 0.0 W/m2 CLR
18:47 -12.6 °C -17.5 °C 34442.4 hPa Calm     54 % 0 mm 0.0 W/m2 CLR
18:52 -12.8 °C -17.6 °C 34442.4 hPa Calm     55 % 0 mm 0.0 W/m2 CLR
18:57 -13 °C -17.4 °C 34442.4 hPa Calm     57 % 0 mm 0.0 W/m2 CLR
19:02 -13.2 °C -17.4 °C 34442.4 hPa Calm     59 % 0 mm 0.0 W/m2 CLR
19:07 -13.4 °C -17.1 °C 34442.4 hPa Calm     63 % 0 mm 0.0 W/m2 CLR
19:12 -13.6 °C -17.2 °C 34442.4 hPa Calm     64 % 0 mm 0.0 W/m2 CLR
19:17 -13.8 °C -17.2 °C 34442.4 hPa Calm     65 % 0 mm 0.0 W/m2 CLR
19:22 -14 °C -17.3 °C 34442.4 hPa Calm     66 % 0 mm 0.0 W/m2 CLR
19:27 -14.2 °C -17.2 °C 34442.4 hPa Calm     68 % 0 mm 0.0 W/m2 CLR
19:32 -14.4 °C -17.2 °C 34442.4 hPa Calm     70 % 0 mm 0.0 W/m2 CLR
19:37 -14.6 °C -17.3 °C 34442.4 hPa Calm     70 % 0 mm 0.0 W/m2 CLR
19:42 -14.6 °C -17.3 °C 34452.6 hPa Calm     71 % 0 mm 0.0 W/m2 CLR
19:47 -14.7 °C -17.2 °C 34442.4 hPa Calm     73 % 0 mm 0.0 W/m2 CLR
19:52 -14.9 °C -17.3 °C 34452.6 hPa Calm     74 % 0 mm 0.0 W/m2 CLR
19:57 -15 °C -17.3 °C 34452.6 hPa Calm     75 % 0 mm 0.0 W/m2 CLR
20:02 -15.1 °C -17.3 °C 34442.4 hPa Calm     76 % 0 mm 0.0 W/m2 CLR
20:07 -15.2 °C -17.3 °C 34452.6 hPa Calm     77 % 0 mm 0.0 W/m2 CLR
20:12 -15.3 °C -17.3 °C 34452.6 hPa Calm     77 % 0 mm 0.0 W/m2 CLR
20:17 -15.3 °C -17.3 °C 34452.6 hPa Calm     77 % 0 mm 0.0 W/m2 CLR
20:22 -15.4 °C -17.3 °C 34452.6 hPa Calm     78 % 0 mm 0.0 W/m2 CLR
20:27 -15.4 °C -17.5 °C 34452.6 hPa Calm     77 % 0 mm 0.0 W/m2 CLR
20:32 -15.6 °C -17.6 °C 34452.6 hPa Calm     78 % 0 mm 0.0 W/m2 CLR
20:37 -15.7 °C -17.6 °C 34452.6 hPa Calm     79 % 0 mm 0.0 W/m2 CLR
20:42 -15.8 °C -17.6 °C 34452.6 hPa Calm     79 % 0 mm 0.0 W/m2 CLR
20:47 -15.9 °C -17.6 °C 34452.6 hPa Calm     80 % 0 mm 0.0 W/m2 CLR
20:52 -15.9 °C -17.6 °C 34452.6 hPa Calm     81 % 0 mm 0.0 W/m2 CLR
20:57 -16 °C -17.6 °C 34452.6 hPa Calm     81 % 0 mm 0.0 W/m2 CLR
21:02 -16 °C -17.7 °C 34452.6 hPa Calm     80 % 0 mm 0.0 W/m2 CLR
21:07 -16.1 °C -17.7 °C 34452.6 hPa Calm     81 % 0 mm 0.0 W/m2 CLR
21:12 -16.1 °C -17.7 °C 34452.6 hPa Calm     81 % 0 mm 0.0 W/m2 CLR
21:17 -16.1 °C -17.7 °C 34452.6 hPa Calm     81 % 0 mm 0.0 W/m2 CLR
21:22 -16.1 °C -17.6 °C 34452.6 hPa Calm     82 % 0 mm 0.0 W/m2 CLR
21:27 -16.1 °C -17.6 °C 34442.4 hPa Calm     82 % 0 mm 0.0 W/m2 CLR
21:32 -16.1 °C -17.7 °C 34442.4 hPa Calm     82 % 0 mm 0.0 W/m2 CLR
21:37 -16.1 °C -17.6 °C 34428.8 hPa Calm     83 % 0 mm 0.0 W/m2 CLR
21:43 -16.1 °C -17.5 °C 34428.8 hPa Calm     83 % 0 mm 0.0 W/m2 CLR
21:48 -15.9 °C -17.4 °C 34428.8 hPa Calm     83 % 0 mm 0.0 W/m2 CLR
21:53 -15.9 °C -17.4 °C 34428.8 hPa Calm     82 % 0 mm 0.0 W/m2 CLR
21:58 -15.9 °C -17.5 °C 34428.8 hPa Calm     81 % 0 mm 0.0 W/m2 CLR
22:03 -15.9 °C -17.6 °C 34428.8 hPa Calm     81 % 0 mm 0.0 W/m2 CLR
22:08 -15.9 °C -17.5 °C 34428.8 hPa Calm     82 % 0 mm 0.0 W/m2 CLR
22:13 -15.9 °C -17.5 °C 34428.8 hPa Calm     82 % 0 mm 0.0 W/m2 CLR
22:18 -15.9 °C -17.4 °C 34418.7 hPa Calm     82 % 0 mm 0.0 W/m2 CLR
22:23 -15.8 °C -17.4 °C 34428.8 hPa Calm     81 % 0 mm 0.0 W/m2 CLR
22:28 -15.7 °C -17.4 °C 34418.7 hPa Calm     80 % 0 mm 0.0 W/m2 CLR
22:33 -15.7 °C -17.3 °C 34418.7 hPa Calm     81 % 0 mm 0.0 W/m2 CLR
22:38 -15.7 °C -17.4 °C 34418.7 hPa Calm     81 % 0 mm 0.0 W/m2 CLR
22:43 -15.8 °C -17.4 °C 34418.7 hPa Calm     81 % 0 mm 0.0 W/m2 CLR
22:48 -15.8 °C -17.4 °C 34418.7 hPa Calm     82 % 0 mm 0.0 W/m2 CLR
22:53 -15.8 °C -17.4 °C 34418.7 hPa Calm     82 % 0 mm 0.0 W/m2 CLR
22:58 -15.8 °C -17.4 °C 34418.7 hPa Calm     82 % 0 mm 0.0 W/m2 CLR
23:03 -15.8 °C -17.4 °C 34418.7 hPa Calm     82 % 0 mm 0.0 W/m2 CLR
23:08 -15.8 °C -17.4 °C 34418.7 hPa Calm     82 % 0 mm 0.0 W/m2 CLR
23:13 -15.9 °C -17.3 °C 34418.7 hPa Calm     83 % 0 mm 0.0 W/m2 CLR
23:16 -15.9 °C -17.3 °C 34418.7 hPa Calm     83 % 0 mm 0.0 W/m2 CLR
23:21 -15.9 °C -17.4 °C 34418.7 hPa Calm     83 % 0 mm 0.0 W/m2 CLR
23:26 -15.9 °C -17.4 °C 34418.7 hPa Calm     83 % 0 mm 0.0 W/m2 CLR
23:31 -15.9 °C -17.4 °C 34418.7 hPa Calm     83 % 0 mm 0.0 W/m2 CLR
23:36 -15.9 °C -17.3 °C 34418.7 hPa Calm     84 % 0 mm 0.0 W/m2 CLR
23:41 -15.9 °C -17.4 °C 34418.7 hPa Calm     83 % 0 mm 0.0 W/m2 CLR
23:46 -16 °C -17.4 °C 34418.7 hPa Calm     83 % 0 mm 0.0 W/m2 CLR
23:55 -16.1 °C -17.5 °C 34418.7 hPa Calm     83 % 0 mm 0.0 W/m2 CLR
Lo Temps de Massalio
Compliments of Weather Underground - 1.25 mb